Main page
Satellite images 15-day forecastsClimateMarine weather Cyclones Lightning AirportsFAQ Newsletter About
Weather : Europe Africa North America South America Asia Australia-Oceania Others
Languages Contact

Budapest, Hungary

Ferihegy

latitude: 47-26N, longitude: 019-16E, elevation: 151 m


METAR: LHBP 241300Z 07010KT 9999 BKN028 06/01 Q1027 NOSIG
TAF: LHBP 241100Z 2412/2512 10005KT 9999 BKN030 BECMG 2422/2501 6000 BKN015 OVC060 TEMPO 2501/2507 3000 RA RASN OVC005

Time: 14:30 (13:30 UTC)

Current weather observation

The report was made 30 minutes ago, at 13:00 UTC
Wind 10 kt from the East/Northeast
Temperature 6°C
Humidity 70%
Pressure 1027 hPa
Visibility 10 km or more
Broken clouds at a height of 2800 ft

Change units

Forecast

The report was made 2 hours and 30 minutes ago, at 11:00 UTC
Forecast valid from 24 at 12 UTC to 25 at 12 UTC
Wind 5 kt from the East
Visibility 10 km or more
Broken clouds at a height of 3000 ft
Becoming
from 24 at 22 UTC to 25 at 01 UTC
Visibility: 6000 m
Broken clouds at a height of 1500 ft
Overcast at a height of 6000 ft
Temporary
from 25 at 01 UTC to 25 at 07 UTC
Visibility: 3000 m
Overcast at a height of 500 ft
rain and rain snow
The information on this site is subject to a disclaimer
Weather : Europe Africa North America South America Asia Australia-Oceania Others
Satellite images 15-day forecastsClimateMarine weather Cyclones Lightning AirportsFAQ Languages Contact Newsletter About